x

Galveston,tx - 22 Nm East Of Galveston, Tx (42035) Wave Buoy

1:50pm - Thu 5th Mar 2015 All times are CST. -6 hours from GMT.

  • Sig Wave height 6.2ft
  • Swell Direction
  • Peak Period 6s
  • Average Period 5s
  • Wind
    29mph, 38mph gusts
  • Sea Temp 58°f
  • Air Temp 40°f
  • Sea Pressure 1027.5mb
  • Galveston,tx -  22 Nm East Of Galveston, Tx
  • Galveston,tx -  22 Nm East Of Galveston, Tx

More Historic Weather Station data

Upgrade to MSW Pro to gain access to the past 30 days of data for over 8000 Wavebouys and Weather Stations around the globe.

Join Pro

Comparision Forecast

View Surf forecast
   
Thu 03/05 1:50pm 6ft 6s 5s 29 38 mph 1027.5mb 58f 40f
12:50pm 7ft 6s 5s 31 38 mph 1027.6mb 58f 41f
11:50am 6.5ft 6s 5s 31 38 mph 1027.4mb 58f 41f
10:50am 7ft 6s 5s 31 38 mph 1027mb 58f 42f
9:50am 6.5ft 5s 5s 29 36 mph 1026.3mb 58f 43f
8:50am 6.5ft 5s 5s 31 38 mph 1024.9mb 58f 43f
7:50am 6ft 6s 5s 34 43 mph 1023.1mb 58f 44f
6:50am 6ft 6s 5s 31 38 mph 1021.8mb 57f 44f
5:50am 7ft 6s 5s 31 38 mph 1020.3mb 58f 45f
4:50am 8ft 6s 5s 34 40 mph 1018.6mb 58f 45f
3:50am 7ft 5s 5s 40 47 mph 1016.2mb 58f 46f
2:50am 5ft 5s 4s 31 38 mph 1016.1mb 58f 49f
1:50am 4ft 4s 4s 29 34 mph 1015.4mb 58f 51f
12:50am 3.5ft 6s 4s 25 29 mph 1014.2mb 59f 53f
Wed 03/04 11:50pm 2.5ft 6s 5s 27 31 mph 1013mb 61f 57f
10:50pm 2.5ft 6s 5s 4 7 mph 1012.6mb 61f 65f
9:50pm 2.5ft 6s 5s 2
mph
1012.3mb 61f 64f
8:50pm 2.5ft 7s 5s 7
mph
1011.1mb 61f 65f
7:50pm 2.5ft 6s 5s 9
mph
1010.6mb 62f 65f
6:50pm 2.5ft 6s 5s 4 7 mph 1010.1mb 62f 65f
5:50pm 2.5ft 6s 5s 4
mph
1009.8mb 63f 65f
4:50pm 2.5ft 6s 5s 4
mph
1009.5mb 63f 65f
3:50pm 2.5ft 6s 5s 7
mph
1009.8mb 63f 65f
2:50pm 2.5ft 5s 5s 7 9 mph 1010.1mb 62f 65f
1:50pm 3ft 6s 5s 2 4 mph 1011mb 62f 64f
12:50pm 2.5ft 6s 4s 4 7 mph 1012mb 61f 64f
11:50am 3ft 6s 5s  -  2 mph 1013.2mb 61f 64f
10:50am 3ft 6s 4s 4
mph
1012.8mb 60f 64f
9:50am 2.5ft 5s 4s 9 11 mph 1012.8mb 60f 64f
8:50am 2.5ft 6s 5s 9
mph
1012.5mb 60f 64f
7:50am 2.5ft 6s 5s 7 9 mph 1012.4mb 60f 64f
6:50am 2.5ft 6s 5s 4 7 mph 1011.8mb 60f 63f
5:50am 2.5ft 5s 5s 2 4 mph 1011.6mb 61f 64f
4:50am 3ft 5s 5s 4
mph
1011.2mb 60f 64f
3:50am 2.5ft 5s 5s 4 7 mph 1011.3mb 60f 63f
2:50am 2ft 5s 4s 4
mph
1011.6mb 60f 63f
1:50am 2ft 5s 4s 7 9 mph 1011.9mb 61f 64f
12:50am 2ft 5s 4s 7
mph
1012.3mb 61f 64f
Tue 03/03 11:50pm 1.6ft 4s 4s 9 11 mph 1012.8mb 61f 64f
10:50pm 1.6ft 4s 4s 7
mph
1013.2mb 61f 63f
9:50pm 1.6ft 5s 4s 7 9 mph 1013.1mb 60f 64f
8:50pm 1.6ft 4s 4s 7 9 mph 1013mb 61f 63f
7:50pm 1.3ft 5s 4s 7
mph
1012.7mb 61f 64f
6:50pm 1.3ft 7s 4s 4
mph
1012.4mb 61f 64f
5:50pm 1.3ft 7s 4s 7 9 mph 1012.5mb 61f 64f
4:50pm 1.3ft 7s 4s 7 9 mph 1012.5mb 62f 64f
3:50pm 1.3ft 7s 4s 9
mph
1012.7mb 62f 64f
2:50pm 1.3ft 7s 4s 9 11 mph 1013.4mb 62f 64f
1:50pm 1.3ft 7s 4s 9 11 mph 1014.4mb 60f 64f
12:50pm 1.6ft 6s 4s 7
mph
1015.8mb 59f 63f
11:50am 1.6ft 7s 4s 11
mph
1016.7mb 59f 63f
10:50am 1.6ft 6s 4s 9 11 mph 1017.4mb 58f 62f
9:50am 1.6ft 6s 4s 9
mph
1017.6mb 58f 61f
8:50am 1.6ft 7s 4s 7
mph
1017.5mb 58f 61f
7:50am 1.6ft 7s 4s 7
mph
1017mb 58f 60f
6:50am 1.6ft 7s 4s 9 11 mph 1016.6mb 58f 60f
5:50am 1.6ft 7s 4s 11
mph
1016.8mb 57f 59f
4:50am 1.6ft 6s 4s 9
mph
1017mb 57f 58f
3:50am 2ft 7s 4s 9
mph
1017.7mb 58f 58f
2:50am 2ft 6s 4s 9 11 mph 1018.2mb 58f 58f
1:50am 2ft 6s 4s 9
mph
1019.1mb 58f 58f
12:50am 1.6ft 7s 4s 7 9 mph 1019.7mb 58f 58f
Mon 03/02 11:50pm 1.6ft 6s 4s 9 11 mph 1020.4mb 58f 58f
10:50pm 2ft 7s 4s 9
mph
1021mb 58f 58f
9:50pm 2ft 6s 4s 9 11 mph 1021.1mb 58f 58f
8:50pm 1.6ft 7s 4s 9 11 mph 1021.5mb 58f 58f
7:50pm 1.6ft 6s 5s 9
mph
1021.2mb 58f 58f
6:50pm 1.6ft 7s 5s 9
mph
1020.8mb 58f 58f
5:50pm 1.6ft 6s 5s 9
mph
1021.1mb 59f 58f
4:50pm 1.6ft 6s 5s 9 11 mph 1021mb 59f 57f
3:50pm 1.6ft 7s 5s 9 11 mph 1021.4mb 59f 57f
2:50pm 2ft 7s 4s 7
mph
1022mb 58f 56f
1:50pm 2ft 6s 4s 7 9 mph 1022.6mb 58f 55f
12:50pm 2.5ft 6s 4s 11 13 mph 1023.6mb 58f 55f
11:50am 2.5ft 6s 4s 11
mph
1024.7mb 58f 54f
10:50am 2.5ft 7s 4s 11 13 mph 1025mb 57f 54f
9:50am 2.5ft 7s 4s 16 18 mph 1024.9mb 57f 53f
8:50am 2.5ft 8s 4s 16 18 mph 1024.4mb 57f 53f
7:50am 2.5ft 7s 4s 13 16 mph 1023.5mb 57f 54f
6:50am 2ft 8s 4s 13 18 mph 1023.2mb 57f 55f
5:50am 2.5ft 7s 5s 13 16 mph 1022.8mb 57f 56f
4:50am 2.5ft 8s 5s 13 16 mph 1022.4mb 58f 56f
3:50am 2.5ft 6s 5s 9 11 mph 1022.4mb 58f 57f
2:50am 2.5ft 7s 5s 9 11 mph 1022.4mb 58f 58f
1:50am 2.5ft 7s 5s 9
mph
1022.8mb 59f 58f
12:50am 2.5ft 7s 5s 9
mph
1023mb 59f 59f
Sun 03/01 11:50pm 2.5ft 8s 5s 9 11 mph 1023.2mb 59f 60f
10:50pm 2.5ft 8s 5s 7 11 mph 1023.1mb 59f 62f
9:50pm 2.5ft 6s 5s 7
mph
1022.8mb 59f 62f